STL weather

Lambert St Louis International Airport
St Louis, Missouri, United States

Public forecast

Using degrees Fahrenheit for public forecast. Weather courtesy of forecast.io.

METAR (pilot weather report)

Retrieved 2017/05/25 00:51 UTC (9 minutes ago):

KSTL 250051Z 30007KT 10SM FEW045 FEW085 SCT120 SCT250 18/09 A2959 RMK AO2 SLP014 T01780089

TAF (pilot weather forecast)

Forecast is more than 12 hours old.

Retrieved 2017/05/24 00:22 UTC (1 day ago):

TAF KSTL 242320Z 2500/2606 32010KT P6SM BKN070 FM250600 30006KT P6SM SCT080 FM251400 30007KT P6SM SCT030 FM252300 24007KT P6SM FEW200